METAR Formatted Surface Weather Observation
Issued by NWS

Home | Current Version | Previous Version | Text Only | Print | Product List | Glossary On
Versions: 1 2
457
SAUS41 KLWX 200959
MTRNHK
METAR KNHK 200952Z AUTO 23006KT 10SM CLR 02/M11 A3000 RMK AO2 SLP159
T00221111 VISNO RY24 $



USA.gov is the U.S. government's official web portal to all federal, state and local government web resources and services.